sensor_id;sensor_type;location;lat;lon;timestamp;P1;durP1;ratioP1;P2;durP2;ratioP2
13240;SDS011;6687;47.790;7.322;2022-08-05T06:14:21;1.00;;;1.00;;
13240;SDS011;6687;47.790;7.322;2022-08-05T06:16:48;0.90;;;0.80;;
13240;SDS011;6687;47.790;7.322;2022-08-05T06:19:15;1.08;;;0.88;;
13240;SDS011;6687;47.790;7.322;2022-08-05T06:21:41;3.00;;;1.02;;
13240;SDS011;6687;47.790;7.322;2022-08-05T06:24:09;1.40;;;0.85;;
13240;SDS011;6687;47.790;7.322;2022-08-05T06:26:36;1.00;;;0.70;;
13240;SDS011;6687;47.790;7.322;2022-08-05T06:29:03;0.68;;;0.68;;
13240;SDS011;6687;47.790;7.322;2022-08-05T06:31:31;1.33;;;0.93;;
13240;SDS011;6687;47.790;7.322;2022-08-05T06:33:58;2.05;;;1.25;;
13240;SDS011;6687;47.790;7.322;2022-08-05T06:36:24;1.83;;;1.30;;
13240;SDS011;6687;47.790;7.322;2022-08-05T06:38:51;2.55;;;1.45;;
13240;SDS011;6687;47.790;7.322;2022-08-05T06:41:18;1.67;;;1.13;;
13240;SDS011;6687;47.790;7.322;2022-08-05T06:43:46;0.80;;;0.80;;
13240;SDS011;6687;47.790;7.322;2022-08-05T06:46:13;1.73;;;1.10;;
13240;SDS011;6687;47.790;7.322;2022-08-05T06:48:41;1.48;;;1.00;;
13240;SDS011;6687;47.790;7.322;2022-08-05T06:51:08;1.25;;;1.15;;
13240;SDS011;6687;47.790;7.322;2022-08-05T06:53:34;1.23;;;1.17;;
13240;SDS011;6687;47.790;7.322;2022-08-05T06:56:02;1.35;;;1.25;;
13240;SDS011;6687;47.790;7.322;2022-08-05T06:58:29;1.23;;;1.08;;
13240;SDS011;6687;47.790;7.322;2022-08-05T07:00:57;2.30;;;0.88;;
13240;SDS011;6687;47.790;7.322;2022-08-05T07:03:23;1.10;;;0.93;;
13240;SDS011;6687;47.790;7.322;2022-08-05T07:05:51;0.88;;;0.80;;
13240;SDS011;6687;47.790;7.322;2022-08-05T07:08:18;1.02;;;0.93;;
13240;SDS011;6687;47.790;7.322;2022-08-05T07:10:46;1.70;;;1.20;;
13240;SDS011;6687;47.790;7.322;2022-08-05T07:13:13;1.05;;;1.00;;
13240;SDS011;6687;47.790;7.322;2022-08-05T07:15:57;0.95;;;0.88;;
13240;SDS011;6687;47.790;7.322;2022-08-05T07:18:49;0.90;;;0.90;;
13240;SDS011;6687;47.790;7.322;2022-08-05T07:21:17;0.77;;;0.77;;
13240;SDS011;6687;47.790;7.322;2022-08-05T07:23:44;2.65;;;0.80;;
13240;SDS011;6687;47.790;7.322;2022-08-05T07:26:11;0.85;;;0.85;;
13240;SDS011;6687;47.790;7.322;2022-08-05T07:28:38;1.40;;;1.05;;
13240;SDS011;6687;47.790;7.322;2022-08-05T07:31:05;1.10;;;1.00;;
13240;SDS011;6687;47.790;7.322;2022-08-05T07:33:32;1.70;;;1.50;;
13240;SDS011;6687;47.790;7.322;2022-08-05T07:35:58;1.67;;;1.13;;
13240;SDS011;6687;47.790;7.322;2022-08-05T07:38:27;1.73;;;0.85;;
13240;SDS011;6687;47.790;7.322;2022-08-05T07:40:53;0.57;;;0.57;;
13240;SDS011;6687;47.790;7.322;2022-08-05T07:43:20;1.05;;;0.60;;
13240;SDS011;6687;47.790;7.322;2022-08-05T07:45:47;1.33;;;1.23;;
13240;SDS011;6687;47.790;7.322;2022-08-05T07:48:13;1.00;;;1.00;;
13240;SDS011;6687;47.790;7.322;2022-08-05T07:50:40;0.93;;;0.93;;
13240;SDS011;6687;47.790;7.322;2022-08-05T07:53:07;2.22;;;1.25;;
13240;SDS011;6687;47.790;7.322;2022-08-05T07:55:35;1.27;;;0.90;;
13240;SDS011;6687;47.790;7.322;2022-08-05T07:58:02;0.60;;;0.60;;
13240;SDS011;6687;47.790;7.322;2022-08-05T08:00:29;0.80;;;0.80;;
13240;SDS011;6687;47.790;7.322;2022-08-05T08:02:56;1.08;;;0.73;;
13240;SDS011;6687;47.790;7.322;2022-08-05T08:05:23;0.50;;;0.47;;
13240;SDS011;6687;47.790;7.322;2022-08-05T08:07:50;0.60;;;0.60;;
13240;SDS011;6687;47.790;7.322;2022-08-05T08:10:19;0.60;;;0.60;;
13240;SDS011;6687;47.790;7.322;2022-08-05T08:12:47;0.88;;;0.80;;
13240;SDS011;6687;47.790;7.322;2022-08-05T08:15:14;0.60;;;0.60;;
13240;SDS011;6687;47.790;7.322;2022-08-05T08:17:41;0.60;;;0.60;;
13240;SDS011;6687;47.790;7.322;2022-08-05T08:20:08;0.93;;;0.90;;
13240;SDS011;6687;47.790;7.322;2022-08-05T08:22:35;0.55;;;0.55;;
13240;SDS011;6687;47.790;7.322;2022-08-05T08:25:02;1.10;;;1.00;;
13240;SDS011;6687;47.790;7.322;2022-08-05T08:27:30;1.17;;;0.80;;
13240;SDS011;6687;47.790;7.322;2022-08-05T08:29:58;0.80;;;0.70;;
13240;SDS011;6687;47.790;7.322;2022-08-05T08:32:25;0.60;;;0.60;;
13240;SDS011;6687;47.790;7.322;2022-08-05T08:34:52;1.23;;;0.70;;
13240;SDS011;6687;47.790;7.322;2022-08-05T08:37:18;0.65;;;0.65;;
13240;SDS011;6687;47.790;7.322;2022-08-05T08:39:45;1.15;;;0.90;;
13240;SDS011;6687;47.790;7.322;2022-08-05T08:42:12;1.55;;;0.55;;
13240;SDS011;6687;47.790;7.322;2022-08-05T08:44:39;0.80;;;0.80;;
13240;SDS011;6687;47.790;7.322;2022-08-05T08:47:10;0.65;;;0.65;;
13240;SDS011;6687;47.790;7.322;2022-08-05T08:49:38;1.00;;;0.60;;
13240;SDS011;6687;47.790;7.322;2022-08-05T08:52:10;0.38;;;0.38;;
13240;SDS011;6687;47.790;7.322;2022-08-05T08:54:38;4.55;;;0.60;;
13240;SDS011;6687;47.790;7.322;2022-08-05T08:57:05;0.60;;;0.60;;
13240;SDS011;6687;47.790;7.322;2022-08-05T08:59:33;1.02;;;0.60;;
13240;SDS011;6687;47.790;7.322;2022-08-05T09:02:00;0.80;;;0.80;;
13240;SDS011;6687;47.790;7.322;2022-08-05T09:04:33;0.65;;;0.65;;
13240;SDS011;6687;47.790;7.322;2022-08-05T09:07:02;0.52;;;0.40;;
13240;SDS011;6687;47.790;7.322;2022-08-05T09:09:30;1.92;;;0.60;;
13240;SDS011;6687;47.790;7.322;2022-08-05T09:11:57;0.50;;;0.50;;
13240;SDS011;6687;47.790;7.322;2022-08-05T09:14:24;0.80;;;0.70;;
13240;SDS011;6687;47.790;7.322;2022-08-05T09:16:51;0.30;;;0.30;;
13240;SDS011;6687;47.790;7.322;2022-08-05T09:19:18;0.63;;;0.63;;
13240;SDS011;6687;47.790;7.322;2022-08-05T09:21:46;0.70;;;0.70;;
13240;SDS011;6687;47.790;7.322;2022-08-05T09:24:13;0.77;;;0.52;;
13240;SDS011;6687;47.790;7.322;2022-08-05T09:26:40;0.60;;;0.60;;
13240;SDS011;6687;47.790;7.322;2022-08-05T09:29:07;2.03;;;1.00;;
13240;SDS011;6687;47.790;7.322;2022-08-05T09:31:34;0.68;;;0.68;;
13240;SDS011;6687;47.790;7.322;2022-08-05T09:34:02;0.93;;;0.80;;
13240;SDS011;6687;47.790;7.322;2022-08-05T09:36:37;0.40;;;0.40;;
13240;SDS011;6687;47.790;7.322;2022-08-05T09:39:09;0.63;;;0.63;;
13240;SDS011;6687;47.790;7.322;2022-08-05T09:41:53;0.43;;;0.43;;
13240;SDS011;6687;47.790;7.322;2022-08-05T09:44:34;1.38;;;0.55;;
13240;SDS011;6687;47.790;7.322;2022-08-05T09:47:09;0.68;;;0.68;;
13240;SDS011;6687;47.790;7.322;2022-08-05T09:49:41;0.75;;;0.75;;
13240;SDS011;6687;47.790;7.322;2022-08-05T09:52:16;0.70;;;0.63;;
13240;SDS011;6687;47.790;7.322;2022-08-05T09:54:52;0.40;;;0.40;;
13240;SDS011;6687;47.790;7.322;2022-08-05T10:00:12;0.90;;;0.80;;
13240;SDS011;6687;47.790;7.322;2022-08-05T10:02:42;0.63;;;0.63;;
13240;SDS011;6687;47.790;7.322;2022-08-05T10:05:10;0.60;;;0.60;;
13240;SDS011;6687;47.790;7.322;2022-08-05T10:07:42;0.73;;;0.73;;
13240;SDS011;6687;47.790;7.322;2022-08-05T10:10:15;1.65;;;0.68;;
13240;SDS011;6687;47.790;7.322;2022-08-05T10:12:44;0.52;;;0.50;;
13240;SDS011;6687;47.790;7.322;2022-08-05T10:15:17;1.85;;;0.73;;
13240;SDS011;6687;47.790;7.322;2022-08-05T10:18:00;1.13;;;0.70;;
13240;SDS011;6687;47.790;7.322;2022-08-05T10:20:39;1.23;;;0.70;;
13240;SDS011;6687;47.790;7.322;2022-08-05T10:23:08;0.70;;;0.70;;
13240;SDS011;6687;47.790;7.322;2022-08-05T10:25:38;0.90;;;0.80;;
13240;SDS011;6687;47.790;7.322;2022-08-05T10:28:05;0.65;;;0.65;;
13240;SDS011;6687;47.790;7.322;2022-08-05T10:30:32;1.75;;;0.60;;
13240;SDS011;6687;47.790;7.322;2022-08-05T10:33:00;0.80;;;0.80;;
13240;SDS011;6687;47.790;7.322;2022-08-05T10:35:28;0.60;;;0.60;;
13240;SDS011;6687;47.790;7.322;2022-08-05T10:37:55;0.77;;;0.75;;
13240;SDS011;6687;47.790;7.322;2022-08-05T10:40:25;0.65;;;0.60;;
13240;SDS011;6687;47.790;7.322;2022-08-05T10:43:00;2.03;;;1.00;;
13240;SDS011;6687;47.790;7.322;2022-08-05T10:45:32;0.75;;;0.75;;
13240;SDS011;6687;47.790;7.322;2022-08-05T10:51:04;0.93;;;0.93;;
13240;SDS011;6687;47.790;7.322;2022-08-05T10:53:36;1.10;;;1.00;;
13240;SDS011;6687;47.790;7.322;2022-08-05T10:56:08;1.15;;;1.15;;
13240;SDS011;6687;47.790;7.322;2022-08-05T10:58:47;1.80;;;0.75;;
13240;SDS011;6687;47.790;7.322;2022-08-05T11:01:16;0.85;;;0.85;;
13240;SDS011;6687;47.790;7.322;2022-08-05T11:03:58;0.80;;;0.80;;
13240;SDS011;6687;47.790;7.322;2022-08-05T11:06:30;0.77;;;0.70;;
13240;SDS011;6687;47.790;7.322;2022-08-05T11:09:11;1.00;;;1.00;;
13240;SDS011;6687;47.790;7.322;2022-08-05T11:11:47;0.65;;;0.65;;
13240;SDS011;6687;47.790;7.322;2022-08-05T11:14:23;0.77;;;0.77;;
13240;SDS011;6687;47.790;7.322;2022-08-05T11:19:56;0.70;;;0.70;;
13240;SDS011;6687;47.790;7.322;2022-08-05T11:22:42;0.90;;;0.77;;
13240;SDS011;6687;47.790;7.322;2022-08-05T11:25:27;1.85;;;0.80;;
13240;SDS011;6687;47.790;7.322;2022-08-05T11:27:55;0.77;;;0.77;;
13240;SDS011;6687;47.790;7.322;2022-08-05T11:30:24;1.00;;;1.00;;
13240;SDS011;6687;47.790;7.322;2022-08-05T11:32:50;1.00;;;0.75;;
13240;SDS011;6687;47.790;7.322;2022-08-05T11:35:53;0.85;;;0.82;;
13240;SDS011;6687;47.790;7.322;2022-08-05T11:41:19;0.98;;;0.90;;
13240;SDS011;6687;47.790;7.322;2022-08-05T11:43:54;1.00;;;0.90;;
13240;SDS011;6687;47.790;7.322;2022-08-05T11:46:26;1.02;;;0.98;;
13240;SDS011;6687;47.790;7.322;2022-08-05T11:48:54;1.27;;;1.10;;
13240;SDS011;6687;47.790;7.322;2022-08-05T11:51:23;0.98;;;0.98;;
13240;SDS011;6687;47.790;7.322;2022-08-05T11:53:51;0.85;;;0.70;;
13240;SDS011;6687;47.790;7.322;2022-08-05T11:56:18;0.90;;;0.90;;
13240;SDS011;6687;47.790;7.322;2022-08-05T11:58:45;2.88;;;0.90;;
13240;SDS011;6687;47.790;7.322;2022-08-05T12:01:13;0.88;;;0.80;;
13240;SDS011;6687;47.790;7.322;2022-08-05T12:03:44;0.70;;;0.70;;
13240;SDS011;6687;47.790;7.322;2022-08-05T12:06:12;0.75;;;0.75;;
13240;SDS011;6687;47.790;7.322;2022-08-05T12:08:40;1.77;;;0.93;;
13240;SDS011;6687;47.790;7.322;2022-08-05T12:11:09;1.00;;;0.90;;
13240;SDS011;6687;47.790;7.322;2022-08-05T12:13:37;0.75;;;0.75;;
13240;SDS011;6687;47.790;7.322;2022-08-05T12:16:07;1.02;;;0.90;;
13240;SDS011;6687;47.790;7.322;2022-08-05T12:18:34;0.80;;;0.80;;
13240;SDS011;6687;47.790;7.322;2022-08-05T12:21:09;1.33;;;1.23;;
13240;SDS011;6687;47.790;7.322;2022-08-05T12:23:38;1.00;;;0.90;;
13240;SDS011;6687;47.790;7.322;2022-08-05T12:26:05;1.23;;;0.90;;
13240;SDS011;6687;47.790;7.322;2022-08-05T12:28:32;0.80;;;0.80;;
13240;SDS011;6687;47.790;7.322;2022-08-05T12:30:59;1.40;;;1.10;;
13240;SDS011;6687;47.790;7.322;2022-08-05T12:33:27;1.27;;;1.27;;
13240;SDS011;6687;47.790;7.322;2022-08-05T12:35:54;0.90;;;0.90;;
13240;SDS011;6687;47.790;7.322;2022-08-05T12:38:22;0.80;;;0.80;;
13240;SDS011;6687;47.790;7.322;2022-08-05T12:40:49;0.70;;;0.70;;
13240;SDS011;6687;47.790;7.322;2022-08-05T12:43:17;0.68;;;0.68;;
13240;SDS011;6687;47.790;7.322;2022-08-05T12:45:50;0.82;;;0.82;;
13240;SDS011;6687;47.790;7.322;2022-08-05T12:48:18;0.90;;;0.90;;
13240;SDS011;6687;47.790;7.322;2022-08-05T12:53:41;1.20;;;1.13;;
13240;SDS011;6687;47.790;7.322;2022-08-05T12:56:15;1.00;;;0.80;;
13240;SDS011;6687;47.790;7.322;2022-08-05T12:58:43;1.70;;;0.95;;
13240;SDS011;6687;47.790;7.322;2022-08-05T13:01:12;0.80;;;0.80;;
13240;SDS011;6687;47.790;7.322;2022-08-05T13:03:39;1.40;;;1.30;;
13240;SDS011;6687;47.790;7.322;2022-08-05T13:06:06;1.75;;;1.15;;
13240;SDS011;6687;47.790;7.322;2022-08-05T13:08:36;0.68;;;0.68;;
13240;SDS011;6687;47.790;7.322;2022-08-05T13:11:04;2.00;;;1.05;;
13240;SDS011;6687;47.790;7.322;2022-08-05T13:13:31;0.90;;;0.90;;
13240;SDS011;6687;47.790;7.322;2022-08-05T13:15:58;1.10;;;1.00;;
13240;SDS011;6687;47.790;7.322;2022-08-05T13:18:35;0.82;;;0.80;;
13240;SDS011;6687;47.790;7.322;2022-08-05T13:21:02;1.48;;;1.30;;
13240;SDS011;6687;47.790;7.322;2022-08-05T13:23:29;0.95;;;0.95;;
13240;SDS011;6687;47.790;7.322;2022-08-05T13:25:56;1.52;;;1.40;;
13240;SDS011;6687;47.790;7.322;2022-08-05T13:28:26;0.90;;;0.90;;
13240;SDS011;6687;47.790;7.322;2022-08-05T13:30:53;1.23;;;1.10;;
13240;SDS011;6687;47.790;7.322;2022-08-05T13:33:19;1.10;;;1.10;;
13240;SDS011;6687;47.790;7.322;2022-08-05T13:35:46;1.17;;;0.75;;
13240;SDS011;6687;47.790;7.322;2022-08-05T13:38:13;0.93;;;0.90;;
13240;SDS011;6687;47.790;7.322;2022-08-05T13:40:40;1.65;;;1.20;;
13240;SDS011;6687;47.790;7.322;2022-08-05T13:43:07;1.45;;;1.00;;
13240;SDS011;6687;47.790;7.322;2022-08-05T13:45:35;1.15;;;1.05;;
13240;SDS011;6687;47.790;7.322;2022-08-05T13:48:01;0.95;;;0.95;;
13240;SDS011;6687;47.790;7.322;2022-08-05T13:50:28;0.95;;;0.95;;
13240;SDS011;6687;47.790;7.322;2022-08-05T13:52:55;2.28;;;1.08;;
13240;SDS011;6687;47.790;7.322;2022-08-05T13:55:22;1.17;;;1.17;;
13240;SDS011;6687;47.790;7.322;2022-08-05T13:57:49;1.15;;;1.05;;
13240;SDS011;6687;47.790;7.322;2022-08-05T14:00:15;1.38;;;1.05;;
13240;SDS011;6687;47.790;7.322;2022-08-05T14:02:43;0.88;;;0.85;;
13240;SDS011;6687;47.790;7.322;2022-08-05T14:05:10;0.93;;;0.93;;
13240;SDS011;6687;47.790;7.322;2022-08-05T14:07:39;1.10;;;1.10;;
13240;SDS011;6687;47.790;7.322;2022-08-05T14:10:06;1.92;;;1.05;;
13240;SDS011;6687;47.790;7.322;2022-08-05T14:12:35;1.23;;;1.13;;
13240;SDS011;6687;47.790;7.322;2022-08-05T14:15:02;1.35;;;0.90;;
13240;SDS011;6687;47.790;7.322;2022-08-05T14:17:29;1.20;;;1.15;;
13240;SDS011;6687;47.790;7.322;2022-08-05T14:19:58;0.70;;;0.70;;
13240;SDS011;6687;47.790;7.322;2022-08-05T14:22:24;2.05;;;0.98;;
13240;SDS011;6687;47.790;7.322;2022-08-05T14:24:51;0.85;;;0.85;;
13240;SDS011;6687;47.790;7.322;2022-08-05T14:27:18;1.20;;;1.15;;
13240;SDS011;6687;47.790;7.322;2022-08-05T14:29:44;1.15;;;1.15;;
13240;SDS011;6687;47.790;7.322;2022-08-05T14:32:11;1.10;;;1.10;;
13240;SDS011;6687;47.790;7.322;2022-08-05T14:34:38;1.00;;;1.00;;
13240;SDS011;6687;47.790;7.322;2022-08-05T14:37:06;1.15;;;1.15;;
13240;SDS011;6687;47.790;7.322;2022-08-05T14:39:33;2.38;;;1.00;;
13240;SDS011;6687;47.790;7.322;2022-08-05T14:42:00;1.48;;;1.05;;
13240;SDS011;6687;47.790;7.322;2022-08-05T14:44:27;1.02;;;1.02;;
13240;SDS011;6687;47.790;7.322;2022-08-05T14:46:54;0.95;;;0.93;;
13240;SDS011;6687;47.790;7.322;2022-08-05T14:49:21;1.55;;;1.00;;
13240;SDS011;6687;47.790;7.322;2022-08-05T14:51:47;2.35;;;0.95;;
13240;SDS011;6687;47.790;7.322;2022-08-05T14:54:16;0.95;;;0.95;;
13240;SDS011;6687;47.790;7.322;2022-08-05T14:56:43;0.95;;;0.77;;
13240;SDS011;6687;47.790;7.322;2022-08-05T14:59:10;1.50;;;0.98;;
13240;SDS011;6687;47.790;7.322;2022-08-05T15:01:37;1.10;;;1.00;;
13240;SDS011;6687;47.790;7.322;2022-08-05T15:04:05;1.85;;;0.88;;
13240;SDS011;6687;47.790;7.322;2022-08-05T15:06:34;0.95;;;0.90;;
13240;SDS011;6687;47.790;7.322;2022-08-05T15:09:00;1.90;;;1.15;;
13240;SDS011;6687;47.790;7.322;2022-08-05T15:11:29;0.80;;;0.80;;
13240;SDS011;6687;47.790;7.322;2022-08-05T15:13:56;1.05;;;1.00;;
13240;SDS011;6687;47.790;7.322;2022-08-05T15:16:23;0.90;;;0.90;;
13240;SDS011;6687;47.790;7.322;2022-08-05T15:18:50;2.47;;;1.10;;
13240;SDS011;6687;47.790;7.322;2022-08-05T15:21:16;0.68;;;0.68;;
13240;SDS011;6687;47.790;7.322;2022-08-05T15:23:43;1.30;;;1.20;;
13240;SDS011;6687;47.790;7.322;2022-08-05T15:26:10;1.45;;;1.20;;
13240;SDS011;6687;47.790;7.322;2022-08-05T15:28:38;1.90;;;1.23;;
13240;SDS011;6687;47.790;7.322;2022-08-05T15:31:04;2.90;;;1.20;;
13240;SDS011;6687;47.790;7.322;2022-08-05T15:33:31;1.08;;;0.98;;
13240;SDS011;6687;47.790;7.322;2022-08-05T15:35:58;3.25;;;1.02;;
13240;SDS011;6687;47.790;7.322;2022-08-05T15:38:24;1.08;;;1.05;;
13240;SDS011;6687;47.790;7.322;2022-08-05T15:40:51;1.27;;;1.17;;
13240;SDS011;6687;47.790;7.322;2022-08-05T15:43:18;1.20;;;1.10;;
13240;SDS011;6687;47.790;7.322;2022-08-05T15:45:46;1.17;;;1.10;;
13240;SDS011;6687;47.790;7.322;2022-08-05T15:48:13;1.45;;;1.05;;
13240;SDS011;6687;47.790;7.322;2022-08-05T15:50:40;2.67;;;1.15;;
13240;SDS011;6687;47.790;7.322;2022-08-05T15:53:07;1.58;;;1.00;;
13240;SDS011;6687;47.790;7.322;2022-08-05T15:55:34;1.67;;;1.10;;
13240;SDS011;6687;47.790;7.322;2022-08-05T15:58:00;0.93;;;0.80;;
13240;SDS011;6687;47.790;7.322;2022-08-05T16:00:27;2.85;;;1.20;;
13240;SDS011;6687;47.790;7.322;2022-08-05T16:02:55;1.27;;;1.08;;
13240;SDS011;6687;47.790;7.322;2022-08-05T16:05:22;1.17;;;0.93;;
13240;SDS011;6687;47.790;7.322;2022-08-05T16:07:49;1.20;;;1.20;;
13240;SDS011;6687;47.790;7.322;2022-08-05T16:10:15;1.20;;;1.10;;
13240;SDS011;6687;47.790;7.322;2022-08-05T16:12:43;0.77;;;0.77;;
13240;SDS011;6687;47.790;7.322;2022-08-05T16:15:12;1.00;;;0.90;;
13240;SDS011;6687;47.790;7.322;2022-08-05T16:17:39;1.33;;;1.20;;
13240;SDS011;6687;47.790;7.322;2022-08-05T16:20:08;1.10;;;1.10;;
13240;SDS011;6687;47.790;7.322;2022-08-05T16:22:35;1.25;;;1.15;;
13240;SDS011;6687;47.790;7.322;2022-08-05T16:25:02;1.27;;;1.23;;
13240;SDS011;6687;47.790;7.322;2022-08-05T16:27:29;1.45;;;1.20;;
13240;SDS011;6687;47.790;7.322;2022-08-05T16:29:56;1.25;;;1.15;;
13240;SDS011;6687;47.790;7.322;2022-08-05T16:32:23;0.80;;;0.80;;
13240;SDS011;6687;47.790;7.322;2022-08-05T16:34:49;1.48;;;1.00;;
13240;SDS011;6687;47.790;7.322;2022-08-05T16:37:17;1.38;;;1.27;;
13240;SDS011;6687;47.790;7.322;2022-08-05T16:39:44;1.48;;;1.23;;
13240;SDS011;6687;47.790;7.322;2022-08-05T16:42:11;1.70;;;1.38;;
13240;SDS011;6687;47.790;7.322;2022-08-05T16:44:37;1.48;;;1.20;;
13240;SDS011;6687;47.790;7.322;2022-08-05T16:47:04;2.50;;;1.23;;
13240;SDS011;6687;47.790;7.322;2022-08-05T16:49:31;3.40;;;1.70;;
13240;SDS011;6687;47.790;7.322;2022-08-05T16:51:58;1.38;;;1.20;;
13240;SDS011;6687;47.790;7.322;2022-08-05T16:54:26;1.40;;;1.30;;
13240;SDS011;6687;47.790;7.322;2022-08-05T16:56:53;1.60;;;1.50;;
13240;SDS011;6687;47.790;7.322;2022-08-05T16:59:19;2.67;;;1.27;;
13240;SDS011;6687;47.790;7.322;2022-08-05T17:01:46;1.17;;;1.10;;
13240;SDS011;6687;47.790;7.322;2022-08-05T17:04:13;3.08;;;1.20;;
13240;SDS011;6687;47.790;7.322;2022-08-05T17:06:39;2.67;;;1.23;;
13240;SDS011;6687;47.790;7.322;2022-08-05T17:09:06;1.23;;;1.13;;
13240;SDS011;6687;47.790;7.322;2022-08-05T17:11:35;1.30;;;1.20;;
13240;SDS011;6687;47.790;7.322;2022-08-05T17:14:01;2.90;;;1.40;;
13240;SDS011;6687;47.790;7.322;2022-08-05T17:16:28;1.17;;;1.13;;
13240;SDS011;6687;47.790;7.322;2022-08-05T17:18:55;1.13;;;1.05;;
13240;SDS011;6687;47.790;7.322;2022-08-05T17:21:21;1.30;;;1.20;;
13240;SDS011;6687;47.790;7.322;2022-08-05T17:23:48;2.10;;;1.30;;
13240;SDS011;6687;47.790;7.322;2022-08-05T17:26:15;1.90;;;1.30;;
13240;SDS011;6687;47.790;7.322;2022-08-05T17:28:43;1.27;;;1.15;;
13240;SDS011;6687;47.790;7.322;2022-08-05T17:31:10;1.30;;;1.20;;
13240;SDS011;6687;47.790;7.322;2022-08-05T17:33:36;1.55;;;1.02;;
13240;SDS011;6687;47.790;7.322;2022-08-05T17:36:03;1.40;;;1.30;;
13240;SDS011;6687;47.790;7.322;2022-08-05T17:38:30;1.23;;;1.13;;
13240;SDS011;6687;47.790;7.322;2022-08-05T17:40:57;1.10;;;1.02;;
13240;SDS011;6687;47.790;7.322;2022-08-05T17:43:24;0.93;;;0.93;;
13240;SDS011;6687;47.790;7.322;2022-08-05T17:45:52;1.17;;;1.08;;
13240;SDS011;6687;47.790;7.322;2022-08-05T17:48:19;1.20;;;1.10;;
13240;SDS011;6687;47.790;7.322;2022-08-05T17:50:45;1.13;;;1.08;;
13240;SDS011;6687;47.790;7.322;2022-08-05T17:53:12;1.38;;;0.90;;
13240;SDS011;6687;47.790;7.322;2022-08-05T17:55:39;1.20;;;1.17;;
13240;SDS011;6687;47.790;7.322;2022-08-05T17:58:06;1.88;;;1.20;;
13240;SDS011;6687;47.790;7.322;2022-08-05T18:00:34;1.40;;;0.93;;
13240;SDS011;6687;47.790;7.322;2022-08-05T18:03:02;1.30;;;1.20;;
13240;SDS011;6687;47.790;7.322;2022-08-05T18:05:29;1.20;;;1.05;;
13240;SDS011;6687;47.790;7.322;2022-08-05T18:07:55;1.15;;;1.05;;
13240;SDS011;6687;47.790;7.322;2022-08-05T18:10:22;1.30;;;1.20;;
13240;SDS011;6687;47.790;7.322;2022-08-05T18:12:49;1.27;;;1.17;;
13240;SDS011;6687;47.790;7.322;2022-08-05T18:15:15;1.30;;;1.20;;
13240;SDS011;6687;47.790;7.322;2022-08-05T18:17:42;0.80;;;0.80;;
13240;SDS011;6687;47.790;7.322;2022-08-05T18:20:11;1.17;;;1.10;;
13240;SDS011;6687;47.790;7.322;2022-08-05T18:22:38;2.15;;;1.10;;
13240;SDS011;6687;47.790;7.322;2022-08-05T18:25:05;2.05;;;1.00;;
13240;SDS011;6687;47.790;7.322;2022-08-05T18:27:32;1.10;;;1.00;;
13240;SDS011;6687;47.790;7.322;2022-08-05T18:29:59;1.10;;;1.00;;
13240;SDS011;6687;47.790;7.322;2022-08-05T18:32:25;1.10;;;1.00;;
13240;SDS011;6687;47.790;7.322;2022-08-05T18:34:52;0.77;;;0.77;;
13240;SDS011;6687;47.790;7.322;2022-08-05T18:37:20;0.80;;;0.80;;
13240;SDS011;6687;47.790;7.322;2022-08-05T18:39:47;0.88;;;0.88;;
13240;SDS011;6687;47.790;7.322;2022-08-05T18:42:13;1.17;;;1.10;;
13240;SDS011;6687;47.790;7.322;2022-08-05T18:44:40;0.75;;;0.63;;
13240;SDS011;6687;47.790;7.322;2022-08-05T18:47:07;0.80;;;0.80;;
13240;SDS011;6687;47.790;7.322;2022-08-05T18:49:34;1.48;;;1.05;;
13240;SDS011;6687;47.790;7.322;2022-08-05T18:52:18;0.80;;;0.80;;
13240;SDS011;6687;47.790;7.322;2022-08-05T18:55:08;1.55;;;0.63;;
13240;SDS011;6687;47.790;7.322;2022-08-05T18:57:36;0.80;;;0.80;;
13240;SDS011;6687;47.790;7.322;2022-08-05T19:00:03;1.00;;;0.85;;
13240;SDS011;6687;47.790;7.322;2022-08-05T19:02:32;0.90;;;0.90;;
13240;SDS011;6687;47.790;7.322;2022-08-05T19:04:59;0.70;;;0.68;;
13240;SDS011;6687;47.790;7.322;2022-08-05T19:07:26;1.17;;;0.98;;
13240;SDS011;6687;47.790;7.322;2022-08-05T19:09:53;1.13;;;0.60;;
13240;SDS011;6687;47.790;7.322;2022-08-05T19:12:22;0.85;;;0.82;;
13240;SDS011;6687;47.790;7.322;2022-08-05T19:14:49;0.60;;;0.60;;
13240;SDS011;6687;47.790;7.322;2022-08-05T19:17:16;1.00;;;0.60;;
13240;SDS011;6687;47.790;7.322;2022-08-05T19:19:43;0.70;;;0.70;;
13240;SDS011;6687;47.790;7.322;2022-08-05T19:22:11;0.77;;;0.77;;
13240;SDS011;6687;47.790;7.322;2022-08-05T19:24:38;0.73;;;0.63;;
13240;SDS011;6687;47.790;7.322;2022-08-05T19:27:05;2.35;;;0.85;;
13240;SDS011;6687;47.790;7.322;2022-08-05T19:29:34;1.42;;;0.60;;
13240;SDS011;6687;47.790;7.322;2022-08-05T19:32:01;2.38;;;0.80;;
13240;SDS011;6687;47.790;7.322;2022-08-05T19:34:27;2.42;;;1.00;;
13240;SDS011;6687;47.790;7.322;2022-08-05T19:36:54;2.10;;;0.52;;
13240;SDS011;6687;47.790;7.322;2022-08-05T19:39:21;1.98;;;0.80;;
13240;SDS011;6687;47.790;7.322;2022-08-05T19:41:48;3.92;;;0.98;;
13240;SDS011;6687;47.790;7.322;2022-08-05T19:44:15;0.98;;;0.80;;
13240;SDS011;6687;47.790;7.322;2022-08-05T19:46:43;2.40;;;1.00;;
13240;SDS011;6687;47.790;7.322;2022-08-05T19:49:10;1.85;;;0.80;;
13240;SDS011;6687;47.790;7.322;2022-08-05T19:51:37;1.67;;;0.80;;
13240;SDS011;6687;47.790;7.322;2022-08-05T19:54:04;1.65;;;0.50;;
13240;SDS011;6687;47.790;7.322;2022-08-05T19:56:32;1.45;;;0.47;;
13240;SDS011;6687;47.790;7.322;2022-08-05T19:59:00;1.23;;;0.60;;
13240;SDS011;6687;47.790;7.322;2022-08-05T20:01:27;0.60;;;0.60;;
13240;SDS011;6687;47.790;7.322;2022-08-05T20:03:55;0.47;;;0.47;;
13240;SDS011;6687;47.790;7.322;2022-08-05T20:06:22;0.80;;;0.80;;
13240;SDS011;6687;47.790;7.322;2022-08-05T20:08:49;0.60;;;0.60;;
13240;SDS011;6687;47.790;7.322;2022-08-05T20:11:16;0.60;;;0.60;;
13240;SDS011;6687;47.790;7.322;2022-08-05T20:13:43;0.60;;;0.60;;
13240;SDS011;6687;47.790;7.322;2022-08-05T20:16:10;0.70;;;0.70;;
13240;SDS011;6687;47.790;7.322;2022-08-05T20:18:37;1.27;;;0.80;;
13240;SDS011;6687;47.790;7.322;2022-08-05T20:21:05;0.60;;;0.60;;
13240;SDS011;6687;47.790;7.322;2022-08-05T20:23:32;1.92;;;0.57;;
13240;SDS011;6687;47.790;7.322;2022-08-05T20:26:00;0.50;;;0.50;;
13240;SDS011;6687;47.790;7.322;2022-08-05T20:28:27;0.80;;;0.80;;
13240;SDS011;6687;47.790;7.322;2022-08-05T20:30:54;0.43;;;0.40;;
13240;SDS011;6687;47.790;7.322;2022-08-05T20:33:20;0.63;;;0.63;;
13240;SDS011;6687;47.790;7.322;2022-08-05T20:35:47;0.57;;;0.57;;
13240;SDS011;6687;47.790;7.322;2022-08-05T20:38:15;0.68;;;0.68;;
13240;SDS011;6687;47.790;7.322;2022-08-05T20:40:42;0.50;;;0.50;;
13240;SDS011;6687;47.790;7.322;2022-08-05T20:43:09;0.50;;;0.50;;
13240;SDS011;6687;47.790;7.322;2022-08-05T20:45:36;0.43;;;0.43;;
13240;SDS011;6687;47.790;7.322;2022-08-05T20:48:03;0.43;;;0.40;;
13240;SDS011;6687;47.790;7.322;2022-08-05T20:50:30;0.35;;;0.35;;
13240;SDS011;6687;47.790;7.322;2022-08-05T20:52:57;1.10;;;0.70;;
13240;SDS011;6687;47.790;7.322;2022-08-05T20:55:25;0.52;;;0.50;;
13240;SDS011;6687;47.790;7.322;2022-08-05T20:57:52;1.02;;;0.85;;
13240;SDS011;6687;47.790;7.322;2022-08-05T21:00:19;0.75;;;0.75;;
13240;SDS011;6687;47.790;7.322;2022-08-05T21:02:46;1.85;;;0.68;;
13240;SDS011;6687;47.790;7.322;2022-08-05T21:05:14;0.85;;;0.85;;
13240;SDS011;6687;47.790;7.322;2022-08-05T21:07:41;0.55;;;0.55;;
13240;SDS011;6687;47.790;7.322;2022-08-05T21:10:08;0.70;;;0.70;;
13240;SDS011;6687;47.790;7.322;2022-08-05T21:12:36;1.00;;;0.90;;
13240;SDS011;6687;47.790;7.322;2022-08-05T21:15:03;0.68;;;0.68;;
13240;SDS011;6687;47.790;7.322;2022-08-05T21:17:30;1.25;;;1.15;;
13240;SDS011;6687;47.790;7.322;2022-08-05T21:19:56;1.58;;;1.02;;
13240;SDS011;6687;47.790;7.322;2022-08-05T21:22:23;0.90;;;0.90;;
13240;SDS011;6687;47.790;7.322;2022-08-05T21:24:50;1.10;;;1.00;;
13240;SDS011;6687;47.790;7.322;2022-08-05T21:27:18;1.73;;;1.10;;
13240;SDS011;6687;47.790;7.322;2022-08-05T21:29:46;0.93;;;0.85;;
13240;SDS011;6687;47.790;7.322;2022-08-05T21:32:13;1.60;;;1.00;;
13240;SDS011;6687;47.790;7.322;2022-08-05T21:34:40;1.20;;;1.10;;